sensor_id;sensor_type;location;lat;lon;timestamp;P1;durP1;ratioP1;P2;durP2;ratioP2
2470;SDS011;1246;53.558;9.940;2022-08-16T00:01:47;13.27;;;11.87;;
2470;SDS011;1246;53.558;9.940;2022-08-16T00:04:13;13.43;;;12.23;;
2470;SDS011;1246;53.558;9.940;2022-08-16T00:06:38;12.10;;;11.10;;
2470;SDS011;1246;53.558;9.940;2022-08-16T00:09:05;11.93;;;10.93;;
2470;SDS011;1246;53.558;9.940;2022-08-16T00:11:30;13.43;;;12.33;;
2470;SDS011;1246;53.558;9.940;2022-08-16T00:13:56;12.37;;;11.47;;
2470;SDS011;1246;53.558;9.940;2022-08-16T00:16:23;13.30;;;12.30;;
2470;SDS011;1246;53.558;9.940;2022-08-16T00:18:49;12.37;;;11.27;;
2470;SDS011;1246;53.558;9.940;2022-08-16T00:21:15;13.10;;;12.10;;
2470;SDS011;1246;53.558;9.940;2022-08-16T00:23:40;14.63;;;13.43;;
2470;SDS011;1246;53.558;9.940;2022-08-16T00:26:06;14.43;;;13.10;;
2470;SDS011;1246;53.558;9.940;2022-08-16T00:28:31;13.83;;;12.77;;
2470;SDS011;1246;53.558;9.940;2022-08-16T00:30:57;14.57;;;13.37;;
2470;SDS011;1246;53.558;9.940;2022-08-16T00:33:22;14.93;;;13.60;;
2470;SDS011;1246;53.558;9.940;2022-08-16T00:35:48;14.60;;;13.50;;
2470;SDS011;1246;53.558;9.940;2022-08-16T00:38:13;13.57;;;12.37;;
2470;SDS011;1246;53.558;9.940;2022-08-16T00:40:43;15.67;;;14.27;;
2470;SDS011;1246;53.558;9.940;2022-08-16T00:43:21;14.67;;;13.37;;
2470;SDS011;1246;53.558;9.940;2022-08-16T00:46:21;16.13;;;14.73;;
2470;SDS011;1246;53.558;9.940;2022-08-16T00:48:45;16.43;;;15.03;;
2470;SDS011;1246;53.558;9.940;2022-08-16T00:51:14;15.93;;;14.53;;
2470;SDS011;1246;53.558;9.940;2022-08-16T00:53:40;16.07;;;14.87;;
2470;SDS011;1246;53.558;9.940;2022-08-16T00:56:07;16.57;;;15.17;;
2470;SDS011;1246;53.558;9.940;2022-08-16T00:58:35;16.70;;;15.33;;
2470;SDS011;1246;53.558;9.940;2022-08-16T01:01:03;16.53;;;15.10;;
2470;SDS011;1246;53.558;9.940;2022-08-16T01:03:29;16.37;;;15.07;;
2470;SDS011;1246;53.558;9.940;2022-08-16T01:05:54;16.80;;;15.50;;
2470;SDS011;1246;53.558;9.940;2022-08-16T01:08:21;16.70;;;15.40;;
2470;SDS011;1246;53.558;9.940;2022-08-16T01:10:48;17.63;;;16.13;;
2470;SDS011;1246;53.558;9.940;2022-08-16T01:13:16;17.20;;;15.50;;
2470;SDS011;1246;53.558;9.940;2022-08-16T01:15:46;17.60;;;16.00;;
2470;SDS011;1246;53.558;9.940;2022-08-16T01:18:15;17.57;;;16.07;;
2470;SDS011;1246;53.558;9.940;2022-08-16T01:20:44;18.43;;;16.90;;
2470;SDS011;1246;53.558;9.940;2022-08-16T01:23:48;18.50;;;16.60;;
2470;SDS011;1246;53.558;9.940;2022-08-16T01:26:14;17.03;;;15.63;;
2470;SDS011;1246;53.558;9.940;2022-08-16T01:28:40;18.77;;;17.07;;
2470;SDS011;1246;53.558;9.940;2022-08-16T01:31:06;19.30;;;17.70;;
2470;SDS011;1246;53.558;9.940;2022-08-16T01:33:34;18.97;;;17.37;;
2470;SDS011;1246;53.558;9.940;2022-08-16T01:36:01;18.90;;;17.30;;
2470;SDS011;1246;53.558;9.940;2022-08-16T01:38:34;19.40;;;17.90;;
2470;SDS011;1246;53.558;9.940;2022-08-16T01:41:03;20.03;;;18.37;;
2470;SDS011;1246;53.558;9.940;2022-08-16T01:43:38;19.77;;;18.23;;
2470;SDS011;1246;53.558;9.940;2022-08-16T01:46:06;19.50;;;17.90;;
2470;SDS011;1246;53.558;9.940;2022-08-16T01:48:41;21.43;;;19.40;;
2470;SDS011;1246;53.558;9.940;2022-08-16T01:51:06;21.10;;;19.20;;
2470;SDS011;1246;53.558;9.940;2022-08-16T01:53:32;20.40;;;18.67;;
2470;SDS011;1246;53.558;9.940;2022-08-16T01:55:57;20.50;;;18.50;;
2470;SDS011;1246;53.558;9.940;2022-08-16T01:58:23;21.70;;;19.03;;
2470;SDS011;1246;53.558;9.940;2022-08-16T02:00:48;21.83;;;19.97;;
2470;SDS011;1246;53.558;9.940;2022-08-16T02:03:14;20.23;;;18.43;;
2470;SDS011;1246;53.558;9.940;2022-08-16T02:05:40;22.50;;;20.50;;
2470;SDS011;1246;53.558;9.940;2022-08-16T02:08:06;20.57;;;18.67;;
2470;SDS011;1246;53.558;9.940;2022-08-16T02:10:32;21.03;;;19.23;;
2470;SDS011;1246;53.558;9.940;2022-08-16T02:12:59;20.77;;;19.17;;
2470;SDS011;1246;53.558;9.940;2022-08-16T02:15:25;21.57;;;19.67;;
2470;SDS011;1246;53.558;9.940;2022-08-16T02:17:53;19.37;;;17.87;;
2470;SDS011;1246;53.558;9.940;2022-08-16T02:20:19;22.37;;;20.17;;
2470;SDS011;1246;53.558;9.940;2022-08-16T02:22:44;21.83;;;20.03;;
2470;SDS011;1246;53.558;9.940;2022-08-16T02:25:12;20.93;;;19.20;;
2470;SDS011;1246;53.558;9.940;2022-08-16T02:27:39;22.63;;;20.73;;
2470;SDS011;1246;53.558;9.940;2022-08-16T02:30:06;20.23;;;18.43;;
2470;SDS011;1246;53.558;9.940;2022-08-16T02:32:32;22.60;;;20.33;;
2470;SDS011;1246;53.558;9.940;2022-08-16T02:34:58;22.50;;;20.60;;
2470;SDS011;1246;53.558;9.940;2022-08-16T02:37:24;20.13;;;18.33;;
2470;SDS011;1246;53.558;9.940;2022-08-16T02:39:49;21.50;;;19.27;;
2470;SDS011;1246;53.558;9.940;2022-08-16T02:42:15;20.23;;;18.53;;
2470;SDS011;1246;53.558;9.940;2022-08-16T02:44:40;19.67;;;17.97;;
2470;SDS011;1246;53.558;9.940;2022-08-16T02:47:05;22.70;;;20.60;;
2470;SDS011;1246;53.558;9.940;2022-08-16T02:49:31;20.93;;;19.23;;
2470;SDS011;1246;53.558;9.940;2022-08-16T02:51:56;22.10;;;20.30;;
2470;SDS011;1246;53.558;9.940;2022-08-16T02:54:21;22.23;;;20.33;;
2470;SDS011;1246;53.558;9.940;2022-08-16T02:56:47;21.00;;;19.10;;
2470;SDS011;1246;53.558;9.940;2022-08-16T02:59:13;23.40;;;21.30;;
2470;SDS011;1246;53.558;9.940;2022-08-16T03:01:38;21.87;;;19.87;;
2470;SDS011;1246;53.558;9.940;2022-08-16T03:04:05;23.70;;;21.60;;
2470;SDS011;1246;53.558;9.940;2022-08-16T03:06:31;22.83;;;20.90;;
2470;SDS011;1246;53.558;9.940;2022-08-16T03:08:57;23.70;;;21.60;;
2470;SDS011;1246;53.558;9.940;2022-08-16T03:11:24;23.67;;;21.77;;
2470;SDS011;1246;53.558;9.940;2022-08-16T03:13:51;22.63;;;20.63;;
2470;SDS011;1246;53.558;9.940;2022-08-16T03:16:18;25.63;;;23.23;;
2470;SDS011;1246;53.558;9.940;2022-08-16T03:18:44;24.83;;;22.47;;
2470;SDS011;1246;53.558;9.940;2022-08-16T03:21:10;26.17;;;23.97;;
2470;SDS011;1246;53.558;9.940;2022-08-16T03:23:37;25.20;;;23.00;;
2470;SDS011;1246;53.558;9.940;2022-08-16T03:26:02;26.10;;;24.00;;
2470;SDS011;1246;53.558;9.940;2022-08-16T03:28:27;24.27;;;22.07;;
2470;SDS011;1246;53.558;9.940;2022-08-16T03:30:53;24.40;;;22.40;;
2470;SDS011;1246;53.558;9.940;2022-08-16T03:33:18;24.67;;;22.67;;
2470;SDS011;1246;53.558;9.940;2022-08-16T03:35:43;25.17;;;23.07;;
2470;SDS011;1246;53.558;9.940;2022-08-16T03:38:10;25.13;;;22.93;;
2470;SDS011;1246;53.558;9.940;2022-08-16T03:40:37;26.60;;;24.20;;
2470;SDS011;1246;53.558;9.940;2022-08-16T03:43:03;25.77;;;23.33;;
2470;SDS011;1246;53.558;9.940;2022-08-16T03:45:31;25.37;;;23.30;;
2470;SDS011;1246;53.558;9.940;2022-08-16T03:47:57;27.10;;;24.80;;
2470;SDS011;1246;53.558;9.940;2022-08-16T03:50:23;25.50;;;23.33;;
2470;SDS011;1246;53.558;9.940;2022-08-16T03:52:48;26.70;;;24.50;;
2470;SDS011;1246;53.558;9.940;2022-08-16T03:55:13;25.50;;;23.43;;
2470;SDS011;1246;53.558;9.940;2022-08-16T03:57:39;26.90;;;24.70;;
2470;SDS011;1246;53.558;9.940;2022-08-16T04:00:12;26.17;;;24.00;;
2470;SDS011;1246;53.558;9.940;2022-08-16T04:02:40;24.37;;;22.00;;
2470;SDS011;1246;53.558;9.940;2022-08-16T04:05:06;25.20;;;23.00;;
2470;SDS011;1246;53.558;9.940;2022-08-16T04:07:32;22.40;;;20.70;;
2470;SDS011;1246;53.558;9.940;2022-08-16T04:09:57;27.00;;;24.70;;
2470;SDS011;1246;53.558;9.940;2022-08-16T04:12:23;27.70;;;25.30;;
2470;SDS011;1246;53.558;9.940;2022-08-16T04:14:48;25.00;;;22.90;;
2470;SDS011;1246;53.558;9.940;2022-08-16T04:17:14;26.80;;;24.50;;
2470;SDS011;1246;53.558;9.940;2022-08-16T04:19:40;28.40;;;26.00;;
2470;SDS011;1246;53.558;9.940;2022-08-16T04:22:06;24.80;;;22.60;;
2470;SDS011;1246;53.558;9.940;2022-08-16T04:24:31;26.40;;;24.00;;
2470;SDS011;1246;53.558;9.940;2022-08-16T04:26:57;28.97;;;26.20;;
2470;SDS011;1246;53.558;9.940;2022-08-16T04:29:23;28.00;;;25.50;;
2470;SDS011;1246;53.558;9.940;2022-08-16T04:31:49;28.97;;;26.40;;
2470;SDS011;1246;53.558;9.940;2022-08-16T04:34:15;27.93;;;25.27;;
2470;SDS011;1246;53.558;9.940;2022-08-16T04:36:40;28.00;;;25.40;;
2470;SDS011;1246;53.558;9.940;2022-08-16T04:39:05;27.50;;;24.97;;
2470;SDS011;1246;53.558;9.940;2022-08-16T04:41:31;28.50;;;25.80;;
2470;SDS011;1246;53.558;9.940;2022-08-16T04:43:57;26.57;;;24.30;;
2470;SDS011;1246;53.558;9.940;2022-08-16T04:46:23;27.70;;;25.40;;
2470;SDS011;1246;53.558;9.940;2022-08-16T04:48:48;27.97;;;25.57;;
2470;SDS011;1246;53.558;9.940;2022-08-16T04:51:14;28.70;;;26.30;;
2470;SDS011;1246;53.558;9.940;2022-08-16T04:53:39;28.47;;;25.87;;
2470;SDS011;1246;53.558;9.940;2022-08-16T04:56:04;27.37;;;25.07;;
2470;SDS011;1246;53.558;9.940;2022-08-16T04:58:30;27.33;;;25.03;;
2470;SDS011;1246;53.558;9.940;2022-08-16T05:00:57;28.37;;;25.87;;
2470;SDS011;1246;53.558;9.940;2022-08-16T05:03:23;29.63;;;26.73;;
2470;SDS011;1246;53.558;9.940;2022-08-16T05:05:49;30.27;;;27.23;;
2470;SDS011;1246;53.558;9.940;2022-08-16T05:08:15;28.40;;;25.80;;
2470;SDS011;1246;53.558;9.940;2022-08-16T05:10:40;30.17;;;27.40;;
2470;SDS011;1246;53.558;9.940;2022-08-16T05:13:06;29.70;;;26.53;;
2470;SDS011;1246;53.558;9.940;2022-08-16T05:15:32;29.73;;;27.23;;
2470;SDS011;1246;53.558;9.940;2022-08-16T05:17:58;29.67;;;27.27;;
2470;SDS011;1246;53.558;9.940;2022-08-16T05:20:23;30.33;;;26.10;;
2470;SDS011;1246;53.558;9.940;2022-08-16T05:22:49;29.37;;;26.77;;
2470;SDS011;1246;53.558;9.940;2022-08-16T05:25:14;29.67;;;26.87;;
2470;SDS011;1246;53.558;9.940;2022-08-16T05:27:40;27.17;;;24.83;;
2470;SDS011;1246;53.558;9.940;2022-08-16T05:30:06;28.33;;;25.93;;
2470;SDS011;1246;53.558;9.940;2022-08-16T05:32:33;29.10;;;26.00;;
2470;SDS011;1246;53.558;9.940;2022-08-16T05:34:59;29.30;;;26.70;;
2470;SDS011;1246;53.558;9.940;2022-08-16T05:37:25;28.00;;;25.70;;
2470;SDS011;1246;53.558;9.940;2022-08-16T05:39:50;27.73;;;25.33;;
2470;SDS011;1246;53.558;9.940;2022-08-16T05:42:16;27.17;;;24.80;;
2470;SDS011;1246;53.558;9.940;2022-08-16T05:44:41;26.57;;;24.17;;
2470;SDS011;1246;53.558;9.940;2022-08-16T05:47:06;26.80;;;24.53;;
2470;SDS011;1246;53.558;9.940;2022-08-16T05:49:32;26.60;;;24.30;;
2470;SDS011;1246;53.558;9.940;2022-08-16T05:51:57;26.93;;;24.63;;
2470;SDS011;1246;53.558;9.940;2022-08-16T05:54:24;27.37;;;25.03;;
2470;SDS011;1246;53.558;9.940;2022-08-16T05:56:52;26.73;;;24.13;;
2470;SDS011;1246;53.558;9.940;2022-08-16T05:59:18;23.60;;;21.70;;
2470;SDS011;1246;53.558;9.940;2022-08-16T06:01:44;25.53;;;23.43;;
2470;SDS011;1246;53.558;9.940;2022-08-16T06:04:10;24.40;;;22.23;;
2470;SDS011;1246;53.558;9.940;2022-08-16T06:06:36;24.53;;;22.20;;
2470;SDS011;1246;53.558;9.940;2022-08-16T06:09:02;23.63;;;21.60;;
2470;SDS011;1246;53.558;9.940;2022-08-16T06:11:27;24.10;;;21.93;;
2470;SDS011;1246;53.558;9.940;2022-08-16T06:13:53;23.00;;;21.00;;
2470;SDS011;1246;53.558;9.940;2022-08-16T06:16:18;23.50;;;21.43;;
2470;SDS011;1246;53.558;9.940;2022-08-16T06:18:44;20.93;;;19.33;;
2470;SDS011;1246;53.558;9.940;2022-08-16T06:21:10;21.17;;;18.90;;
2470;SDS011;1246;53.558;9.940;2022-08-16T06:23:37;22.17;;;20.17;;
2470;SDS011;1246;53.558;9.940;2022-08-16T06:26:03;20.97;;;19.27;;
2470;SDS011;1246;53.558;9.940;2022-08-16T06:28:29;22.60;;;20.63;;
2470;SDS011;1246;53.558;9.940;2022-08-16T06:30:54;20.70;;;18.73;;
2470;SDS011;1246;53.558;9.940;2022-08-16T06:33:20;20.27;;;18.50;;
2470;SDS011;1246;53.558;9.940;2022-08-16T06:35:45;19.77;;;17.90;;
2470;SDS011;1246;53.558;9.940;2022-08-16T06:38:11;19.03;;;17.47;;
2470;SDS011;1246;53.558;9.940;2022-08-16T06:40:36;19.40;;;17.50;;
2470;SDS011;1246;53.558;9.940;2022-08-16T06:43:02;18.30;;;16.70;;
2470;SDS011;1246;53.558;9.940;2022-08-16T06:45:27;17.73;;;16.03;;
2470;SDS011;1246;53.558;9.940;2022-08-16T06:47:53;18.37;;;16.70;;
2470;SDS011;1246;53.558;9.940;2022-08-16T06:50:18;17.27;;;15.77;;
2470;SDS011;1246;53.558;9.940;2022-08-16T06:52:44;16.47;;;15.17;;
2470;SDS011;1246;53.558;9.940;2022-08-16T06:55:10;16.50;;;15.20;;
2470;SDS011;1246;53.558;9.940;2022-08-16T06:57:37;15.10;;;13.87;;
2470;SDS011;1246;53.558;9.940;2022-08-16T07:00:03;16.20;;;14.60;;
2470;SDS011;1246;53.558;9.940;2022-08-16T07:02:37;15.73;;;14.43;;
2470;SDS011;1246;53.558;9.940;2022-08-16T07:05:04;14.30;;;13.20;;
2470;SDS011;1246;53.558;9.940;2022-08-16T07:07:31;14.50;;;13.30;;
2470;SDS011;1246;53.558;9.940;2022-08-16T07:09:56;14.60;;;13.20;;
2470;SDS011;1246;53.558;9.940;2022-08-16T07:12:22;15.40;;;14.07;;
2470;SDS011;1246;53.558;9.940;2022-08-16T07:14:47;14.80;;;13.33;;
2470;SDS011;1246;53.558;9.940;2022-08-16T07:17:13;15.10;;;13.60;;
2470;SDS011;1246;53.558;9.940;2022-08-16T07:19:39;12.63;;;11.63;;
2470;SDS011;1246;53.558;9.940;2022-08-16T07:22:05;14.07;;;12.87;;
2470;SDS011;1246;53.558;9.940;2022-08-16T07:24:30;13.33;;;12.13;;
2470;SDS011;1246;53.558;9.940;2022-08-16T07:26:55;14.90;;;12.57;;
2470;SDS011;1246;53.558;9.940;2022-08-16T07:29:22;14.93;;;12.00;;
2470;SDS011;1246;53.558;9.940;2022-08-16T07:31:47;17.30;;;13.43;;
2470;SDS011;1246;53.558;9.940;2022-08-16T07:34:13;18.23;;;13.80;;
2470;SDS011;1246;53.558;9.940;2022-08-16T07:36:38;13.17;;;11.83;;
2470;SDS011;1246;53.558;9.940;2022-08-16T07:39:05;14.10;;;12.90;;
2470;SDS011;1246;53.558;9.940;2022-08-16T07:41:32;14.43;;;13.13;;
2470;SDS011;1246;53.558;9.940;2022-08-16T07:43:59;13.10;;;11.90;;
2470;SDS011;1246;53.558;9.940;2022-08-16T07:46:25;13.60;;;11.77;;
2470;SDS011;1246;53.558;9.940;2022-08-16T07:48:50;12.70;;;11.60;;
2470;SDS011;1246;53.558;9.940;2022-08-16T07:51:15;12.97;;;10.53;;
2470;SDS011;1246;53.558;9.940;2022-08-16T07:53:41;9.90;;;9.00;;
2470;SDS011;1246;53.558;9.940;2022-08-16T07:56:08;12.10;;;11.03;;
2470;SDS011;1246;53.558;9.940;2022-08-16T07:58:33;11.10;;;10.10;;
2470;SDS011;1246;53.558;9.940;2022-08-16T08:00:59;12.20;;;10.40;;
2470;SDS011;1246;53.558;9.940;2022-08-16T08:03:25;11.70;;;10.60;;
2470;SDS011;1246;53.558;9.940;2022-08-16T08:05:51;11.20;;;10.20;;
2470;SDS011;1246;53.558;9.940;2022-08-16T08:08:16;11.80;;;10.80;;
2470;SDS011;1246;53.558;9.940;2022-08-16T08:10:42;11.33;;;10.33;;
2470;SDS011;1246;53.558;9.940;2022-08-16T08:13:08;11.57;;;10.67;;
2470;SDS011;1246;53.558;9.940;2022-08-16T08:15:33;9.77;;;8.97;;
2470;SDS011;1246;53.558;9.940;2022-08-16T08:17:59;10.93;;;10.00;;
2470;SDS011;1246;53.558;9.940;2022-08-16T08:20:26;9.77;;;9.00;;
2470;SDS011;1246;53.558;9.940;2022-08-16T08:22:52;8.60;;;7.90;;
2470;SDS011;1246;53.558;9.940;2022-08-16T08:25:18;9.23;;;8.43;;
2470;SDS011;1246;53.558;9.940;2022-08-16T08:27:44;9.40;;;8.60;;
2470;SDS011;1246;53.558;9.940;2022-08-16T08:30:11;10.87;;;9.57;;
2470;SDS011;1246;53.558;9.940;2022-08-16T08:32:36;9.30;;;8.60;;
2470;SDS011;1246;53.558;9.940;2022-08-16T08:35:02;10.47;;;9.50;;
2470;SDS011;1246;53.558;9.940;2022-08-16T08:37:29;9.23;;;8.40;;
2470;SDS011;1246;53.558;9.940;2022-08-16T08:39:54;9.13;;;8.40;;
2470;SDS011;1246;53.558;9.940;2022-08-16T08:42:20;10.47;;;9.47;;
2470;SDS011;1246;53.558;9.940;2022-08-16T08:44:45;9.27;;;8.23;;
2470;SDS011;1246;53.558;9.940;2022-08-16T08:47:11;10.00;;;9.20;;
2470;SDS011;1246;53.558;9.940;2022-08-16T08:49:36;9.30;;;8.50;;
2470;SDS011;1246;53.558;9.940;2022-08-16T08:52:02;10.40;;;8.37;;
2470;SDS011;1246;53.558;9.940;2022-08-16T08:54:28;8.47;;;7.63;;
2470;SDS011;1246;53.558;9.940;2022-08-16T08:56:54;8.93;;;8.10;;
2470;SDS011;1246;53.558;9.940;2022-08-16T08:59:20;9.83;;;7.43;;
2470;SDS011;1246;53.558;9.940;2022-08-16T09:01:45;8.63;;;7.93;;
2470;SDS011;1246;53.558;9.940;2022-08-16T09:04:11;8.77;;;8.00;;
2470;SDS011;1246;53.558;9.940;2022-08-16T09:06:37;8.67;;;7.97;;
2470;SDS011;1246;53.558;9.940;2022-08-16T09:09:03;9.33;;;8.53;;
2470;SDS011;1246;53.558;9.940;2022-08-16T09:11:29;8.80;;;7.93;;
2470;SDS011;1246;53.558;9.940;2022-08-16T09:13:55;10.07;;;9.07;;
2470;SDS011;1246;53.558;9.940;2022-08-16T09:16:20;9.40;;;7.77;;
2470;SDS011;1246;53.558;9.940;2022-08-16T09:18:45;8.53;;;7.67;;
2470;SDS011;1246;53.558;9.940;2022-08-16T09:21:14;8.93;;;7.73;;
2470;SDS011;1246;53.558;9.940;2022-08-16T09:23:40;9.23;;;8.63;;
2470;SDS011;1246;53.558;9.940;2022-08-16T09:26:06;9.53;;;8.57;;
2470;SDS011;1246;53.558;9.940;2022-08-16T09:28:35;8.57;;;7.77;;
2470;SDS011;1246;53.558;9.940;2022-08-16T09:31:01;8.40;;;7.70;;
2470;SDS011;1246;53.558;9.940;2022-08-16T09:33:27;10.73;;;7.77;;
2470;SDS011;1246;53.558;9.940;2022-08-16T09:35:53;9.23;;;7.33;;
2470;SDS011;1246;53.558;9.940;2022-08-16T09:38:19;8.07;;;7.47;;
2470;SDS011;1246;53.558;9.940;2022-08-16T09:40:45;8.50;;;7.60;;
2470;SDS011;1246;53.558;9.940;2022-08-16T09:43:12;8.30;;;6.60;;
2470;SDS011;1246;53.558;9.940;2022-08-16T09:45:39;8.53;;;6.80;;
2470;SDS011;1246;53.558;9.940;2022-08-16T09:48:06;8.70;;;6.43;;
2470;SDS011;1246;53.558;9.940;2022-08-16T09:50:32;7.53;;;6.83;;
2470;SDS011;1246;53.558;9.940;2022-08-16T09:53:00;7.60;;;6.90;;
2470;SDS011;1246;53.558;9.940;2022-08-16T09:55:26;8.00;;;7.30;;
2470;SDS011;1246;53.558;9.940;2022-08-16T09:57:51;8.53;;;7.00;;
2470;SDS011;1246;53.558;9.940;2022-08-16T10:00:16;8.70;;;7.20;;
2470;SDS011;1246;53.558;9.940;2022-08-16T10:02:42;7.40;;;6.70;;
2470;SDS011;1246;53.558;9.940;2022-08-16T10:05:08;8.67;;;7.77;;
2470;SDS011;1246;53.558;9.940;2022-08-16T10:07:33;7.87;;;7.17;;
2470;SDS011;1246;53.558;9.940;2022-08-16T10:09:59;8.07;;;7.37;;
2470;SDS011;1246;53.558;9.940;2022-08-16T10:12:25;8.70;;;7.40;;
2470;SDS011;1246;53.558;9.940;2022-08-16T10:15:11;8.40;;;7.70;;
2470;SDS011;1246;53.558;9.940;2022-08-16T10:17:37;7.30;;;6.80;;
2470;SDS011;1246;53.558;9.940;2022-08-16T10:20:06;8.17;;;7.57;;
2470;SDS011;1246;53.558;9.940;2022-08-16T10:22:38;8.03;;;6.63;;
2470;SDS011;1246;53.558;9.940;2022-08-16T10:25:04;7.67;;;7.00;;
2470;SDS011;1246;53.558;9.940;2022-08-16T10:27:30;8.20;;;7.40;;
2470;SDS011;1246;53.558;9.940;2022-08-16T10:29:56;7.20;;;6.70;;
2470;SDS011;1246;53.558;9.940;2022-08-16T10:32:22;7.63;;;7.00;;
2470;SDS011;1246;53.558;9.940;2022-08-16T10:34:48;8.40;;;7.70;;
2470;SDS011;1246;53.558;9.940;2022-08-16T10:37:13;10.50;;;7.90;;
2470;SDS011;1246;53.558;9.940;2022-08-16T10:39:38;8.50;;;7.70;;
2470;SDS011;1246;53.558;9.940;2022-08-16T10:42:04;7.83;;;7.03;;
2470;SDS011;1246;53.558;9.940;2022-08-16T10:44:30;9.00;;;8.30;;
2470;SDS011;1246;53.558;9.940;2022-08-16T10:46:56;8.47;;;7.80;;
2470;SDS011;1246;53.558;9.940;2022-08-16T10:49:21;10.37;;;8.33;;
2470;SDS011;1246;53.558;9.940;2022-08-16T10:51:47;8.93;;;8.03;;
2470;SDS011;1246;53.558;9.940;2022-08-16T10:54:12;7.83;;;7.23;;
2470;SDS011;1246;53.558;9.940;2022-08-16T10:56:38;8.00;;;7.17;;
2470;SDS011;1246;53.558;9.940;2022-08-16T10:59:03;7.90;;;7.30;;
2470;SDS011;1246;53.558;9.940;2022-08-16T11:01:30;7.77;;;7.13;;
2470;SDS011;1246;53.558;9.940;2022-08-16T11:03:55;8.73;;;7.93;;
2470;SDS011;1246;53.558;9.940;2022-08-16T11:06:21;8.70;;;7.90;;
2470;SDS011;1246;53.558;9.940;2022-08-16T11:08:48;8.70;;;8.07;;
2470;SDS011;1246;53.558;9.940;2022-08-16T11:11:14;8.57;;;7.97;;
2470;SDS011;1246;53.558;9.940;2022-08-16T11:13:39;9.27;;;8.17;;
2470;SDS011;1246;53.558;9.940;2022-08-16T11:16:06;7.73;;;7.03;;
2470;SDS011;1246;53.558;9.940;2022-08-16T11:18:32;7.97;;;7.37;;
2470;SDS011;1246;53.558;9.940;2022-08-16T11:20:57;9.47;;;7.40;;
2470;SDS011;1246;53.558;9.940;2022-08-16T11:23:23;8.03;;;7.43;;
2470;SDS011;1246;53.558;9.940;2022-08-16T11:25:49;7.90;;;7.30;;
2470;SDS011;1246;53.558;9.940;2022-08-16T11:28:15;8.47;;;7.53;;
2470;SDS011;1246;53.558;9.940;2022-08-16T11:30:41;8.00;;;7.40;;
2470;SDS011;1246;53.558;9.940;2022-08-16T11:33:06;8.27;;;7.40;;
2470;SDS011;1246;53.558;9.940;2022-08-16T11:35:33;9.30;;;8.50;;
2470;SDS011;1246;53.558;9.940;2022-08-16T11:38:02;9.30;;;8.10;;
2470;SDS011;1246;53.558;9.940;2022-08-16T11:40:39;9.03;;;8.30;;
2470;SDS011;1246;53.558;9.940;2022-08-16T11:43:11;9.40;;;7.70;;
2470;SDS011;1246;53.558;9.940;2022-08-16T11:45:38;8.43;;;7.63;;
2470;SDS011;1246;53.558;9.940;2022-08-16T11:48:03;8.43;;;7.70;;
2470;SDS011;1246;53.558;9.940;2022-08-16T11:50:29;9.47;;;8.67;;
2470;SDS011;1246;53.558;9.940;2022-08-16T11:52:58;9.70;;;8.80;;
2470;SDS011;1246;53.558;9.940;2022-08-16T11:55:25;9.87;;;8.97;;
2470;SDS011;1246;53.558;9.940;2022-08-16T11:57:51;11.20;;;10.10;;
2470;SDS011;1246;53.558;9.940;2022-08-16T12:00:16;10.57;;;9.63;;
2470;SDS011;1246;53.558;9.940;2022-08-16T12:02:42;11.83;;;10.10;;
2470;SDS011;1246;53.558;9.940;2022-08-16T12:05:08;11.63;;;10.63;;
2470;SDS011;1246;53.558;9.940;2022-08-16T12:07:36;11.70;;;10.60;;
2470;SDS011;1246;53.558;9.940;2022-08-16T12:10:03;10.43;;;9.50;;
2470;SDS011;1246;53.558;9.940;2022-08-16T12:12:30;13.73;;;12.23;;
2470;SDS011;1246;53.558;9.940;2022-08-16T12:14:56;11.43;;;10.33;;
2470;SDS011;1246;53.558;9.940;2022-08-16T12:17:21;12.23;;;11.10;;
2470;SDS011;1246;53.558;9.940;2022-08-16T12:19:47;11.90;;;10.90;;
2470;SDS011;1246;53.558;9.940;2022-08-16T12:22:12;11.70;;;10.70;;
2470;SDS011;1246;53.558;9.940;2022-08-16T12:24:38;11.87;;;10.80;;
2470;SDS011;1246;53.558;9.940;2022-08-16T12:27:04;11.37;;;10.47;;
2470;SDS011;1246;53.558;9.940;2022-08-16T12:29:29;11.00;;;10.00;;
2470;SDS011;1246;53.558;9.940;2022-08-16T12:31:55;11.30;;;10.03;;
2470;SDS011;1246;53.558;9.940;2022-08-16T12:34:21;10.70;;;9.70;;
2470;SDS011;1246;53.558;9.940;2022-08-16T12:36:46;13.80;;;11.03;;
2470;SDS011;1246;53.558;9.940;2022-08-16T12:39:12;10.87;;;8.97;;
2470;SDS011;1246;53.558;9.940;2022-08-16T12:41:38;10.53;;;9.63;;
2470;SDS011;1246;53.558;9.940;2022-08-16T12:44:04;10.50;;;9.63;;
2470;SDS011;1246;53.558;9.940;2022-08-16T12:46:30;12.43;;;9.07;;
2470;SDS011;1246;53.558;9.940;2022-08-16T12:48:57;9.90;;;9.00;;
2470;SDS011;1246;53.558;9.940;2022-08-16T12:51:35;10.23;;;9.07;;
2470;SDS011;1246;53.558;9.940;2022-08-16T12:54:03;9.87;;;8.87;;
2470;SDS011;1246;53.558;9.940;2022-08-16T12:56:32;9.77;;;8.97;;
2470;SDS011;1246;53.558;9.940;2022-08-16T12:59:00;9.10;;;8.40;;
2470;SDS011;1246;53.558;9.940;2022-08-16T13:01:29;10.20;;;9.30;;
2470;SDS011;1246;53.558;9.940;2022-08-16T13:03:56;11.50;;;10.30;;
2470;SDS011;1246;53.558;9.940;2022-08-16T13:06:23;10.23;;;9.33;;
2470;SDS011;1246;53.558;9.940;2022-08-16T13:08:49;8.60;;;7.70;;
2470;SDS011;1246;53.558;9.940;2022-08-16T13:11:19;8.30;;;7.50;;
2470;SDS011;1246;53.558;9.940;2022-08-16T13:13:49;8.20;;;7.60;;
2470;SDS011;1246;53.558;9.940;2022-08-16T13:16:14;8.17;;;7.40;;
2470;SDS011;1246;53.558;9.940;2022-08-16T13:18:39;7.80;;;7.03;;
2470;SDS011;1246;53.558;9.940;2022-08-16T13:21:05;8.87;;;8.03;;
2470;SDS011;1246;53.558;9.940;2022-08-16T13:23:32;8.93;;;7.33;;
2470;SDS011;1246;53.558;9.940;2022-08-16T13:25:58;8.00;;;7.30;;
2470;SDS011;1246;53.558;9.940;2022-08-16T13:28:23;11.40;;;7.67;;
2470;SDS011;1246;53.558;9.940;2022-08-16T13:30:52;9.47;;;7.17;;
2470;SDS011;1246;53.558;9.940;2022-08-16T13:33:20;8.97;;;8.20;;
2470;SDS011;1246;53.558;9.940;2022-08-16T13:35:51;8.90;;;8.00;;
2470;SDS011;1246;53.558;9.940;2022-08-16T13:38:17;9.70;;;8.80;;
2470;SDS011;1246;53.558;9.940;2022-08-16T13:40:43;8.90;;;8.20;;
2470;SDS011;1246;53.558;9.940;2022-08-16T13:43:09;9.90;;;8.90;;
2470;SDS011;1246;53.558;9.940;2022-08-16T13:45:34;9.20;;;8.20;;
2470;SDS011;1246;53.558;9.940;2022-08-16T13:48:00;10.40;;;9.17;;
2470;SDS011;1246;53.558;9.940;2022-08-16T13:50:29;9.00;;;8.20;;
2470;SDS011;1246;53.558;9.940;2022-08-16T13:52:55;10.67;;;8.20;;
2470;SDS011;1246;53.558;9.940;2022-08-16T13:55:21;9.30;;;8.50;;
2470;SDS011;1246;53.558;9.940;2022-08-16T13:57:46;8.30;;;7.60;;
2470;SDS011;1246;53.558;9.940;2022-08-16T14:00:12;8.30;;;7.50;;
2470;SDS011;1246;53.558;9.940;2022-08-16T14:02:38;8.23;;;7.50;;
2470;SDS011;1246;53.558;9.940;2022-08-16T14:05:04;8.47;;;7.67;;
2470;SDS011;1246;53.558;9.940;2022-08-16T14:07:29;8.10;;;7.40;;
2470;SDS011;1246;53.558;9.940;2022-08-16T14:09:55;9.20;;;7.17;;
2470;SDS011;1246;53.558;9.940;2022-08-16T14:12:22;8.20;;;7.40;;
2470;SDS011;1246;53.558;9.940;2022-08-16T14:14:51;8.27;;;7.37;;
2470;SDS011;1246;53.558;9.940;2022-08-16T14:17:17;8.43;;;7.63;;
2470;SDS011;1246;53.558;9.940;2022-08-16T14:19:43;7.80;;;7.20;;
2470;SDS011;1246;53.558;9.940;2022-08-16T14:22:13;10.00;;;7.77;;
2470;SDS011;1246;53.558;9.940;2022-08-16T14:24:41;9.70;;;7.87;;
2470;SDS011;1246;53.558;9.940;2022-08-16T14:27:08;8.67;;;7.90;;
2470;SDS011;1246;53.558;9.940;2022-08-16T14:29:34;8.57;;;7.87;;
2470;SDS011;1246;53.558;9.940;2022-08-16T14:32:02;8.47;;;7.77;;
2470;SDS011;1246;53.558;9.940;2022-08-16T14:34:29;8.87;;;8.07;;
2470;SDS011;1246;53.558;9.940;2022-08-16T14:36:54;9.20;;;7.10;;
2470;SDS011;1246;53.558;9.940;2022-08-16T14:39:19;8.33;;;7.53;;
2470;SDS011;1246;53.558;9.940;2022-08-16T14:41:46;8.60;;;7.80;;
2470;SDS011;1246;53.558;9.940;2022-08-16T14:44:11;7.50;;;6.87;;
2470;SDS011;1246;53.558;9.940;2022-08-16T14:46:36;8.00;;;7.30;;
2470;SDS011;1246;53.558;9.940;2022-08-16T14:49:02;8.03;;;7.27;;
2470;SDS011;1246;53.558;9.940;2022-08-16T14:51:28;8.70;;;7.90;;
2470;SDS011;1246;53.558;9.940;2022-08-16T14:53:53;8.63;;;7.70;;